sensor_id;sensor_type;location;lat;lon;timestamp;P1;durP1;ratioP1;P2;durP2;ratioP2
35312;SDS011;21425;50.454;30.466;2022-09-09T00:04:32;4.82;;;2.30;;
35312;SDS011;21425;50.454;30.466;2022-09-09T00:09:53;5.95;;;2.80;;
35312;SDS011;21425;50.454;30.466;2022-09-09T00:15:13;8.18;;;2.65;;
35312;SDS011;21425;50.454;30.466;2022-09-09T00:23:27;5.13;;;2.78;;
35312;SDS011;21425;50.454;30.466;2022-09-09T00:29:05;4.85;;;2.20;;
35312;SDS011;21425;50.454;30.466;2022-09-09T00:31:42;4.95;;;2.80;;
35312;SDS011;21425;50.454;30.466;2022-09-09T00:34:18;7.38;;;3.33;;
35312;SDS011;21425;50.454;30.466;2022-09-09T00:36:51;11.35;;;2.85;;
35312;SDS011;21425;50.454;30.466;2022-09-09T00:39:31;7.43;;;2.83;;
35312;SDS011;21425;50.454;30.466;2022-09-09T00:44:38;7.47;;;2.78;;
35312;SDS011;21425;50.454;30.466;2022-09-09T00:55:15;9.40;;;2.72;;
35312;SDS011;21425;50.454;30.466;2022-09-09T00:57:41;6.65;;;2.65;;
35312;SDS011;21425;50.454;30.466;2022-09-09T01:05:30;6.10;;;3.25;;
35312;SDS011;21425;50.454;30.466;2022-09-09T01:08:09;6.03;;;3.28;;
35312;SDS011;21425;50.454;30.466;2022-09-09T01:10:52;7.03;;;3.10;;
35312;SDS011;21425;50.454;30.466;2022-09-09T01:13:24;7.75;;;3.28;;
35312;SDS011;21425;50.454;30.466;2022-09-09T01:15:51;8.50;;;2.95;;
35312;SDS011;21425;50.454;30.466;2022-09-09T01:18:23;10.43;;;5.22;;
35312;SDS011;21425;50.454;30.466;2022-09-09T01:23:49;9.30;;;3.45;;
35312;SDS011;21425;50.454;30.466;2022-09-09T01:26:40;10.88;;;3.35;;
35312;SDS011;21425;50.454;30.466;2022-09-09T01:29:14;8.93;;;3.67;;
35312;SDS011;21425;50.454;30.466;2022-09-09T01:34:14;14.32;;;3.92;;
35312;SDS011;21425;50.454;30.466;2022-09-09T01:39:20;11.25;;;3.50;;
35312;SDS011;21425;50.454;30.466;2022-09-09T01:41:46;16.45;;;3.53;;
35312;SDS011;21425;50.454;30.466;2022-09-09T01:44:11;14.60;;;3.28;;
35312;SDS011;21425;50.454;30.466;2022-09-09T01:46:37;15.65;;;3.55;;
35312;SDS011;21425;50.454;30.466;2022-09-09T01:49:04;13.75;;;4.20;;
35312;SDS011;21425;50.454;30.466;2022-09-09T01:51:32;16.90;;;4.32;;
35312;SDS011;21425;50.454;30.466;2022-09-09T01:53:58;13.63;;;4.65;;
35312;SDS011;21425;50.454;30.466;2022-09-09T02:01:50;21.00;;;4.60;;
35312;SDS011;21425;50.454;30.466;2022-09-09T02:07:50;12.45;;;4.13;;
35312;SDS011;21425;50.454;30.466;2022-09-09T02:12:45;14.75;;;4.22;;
35312;SDS011;21425;50.454;30.466;2022-09-09T02:15:32;19.45;;;4.47;;
35312;SDS011;21425;50.454;30.466;2022-09-09T02:18:04;14.85;;;4.38;;
35312;SDS011;21425;50.454;30.466;2022-09-09T02:20:33;9.95;;;3.75;;
35312;SDS011;21425;50.454;30.466;2022-09-09T02:23:02;18.25;;;4.10;;
35312;SDS011;21425;50.454;30.466;2022-09-09T02:25:29;15.50;;;4.53;;
35312;SDS011;21425;50.454;30.466;2022-09-09T02:27:55;11.15;;;3.50;;
35312;SDS011;21425;50.454;30.466;2022-09-09T02:30:25;14.10;;;3.55;;
35312;SDS011;21425;50.454;30.466;2022-09-09T02:32:54;14.48;;;3.83;;
35312;SDS011;21425;50.454;30.466;2022-09-09T02:35:23;12.73;;;3.60;;
35312;SDS011;21425;50.454;30.466;2022-09-09T02:37:51;10.27;;;3.38;;
35312;SDS011;21425;50.454;30.466;2022-09-09T02:40:19;12.45;;;4.20;;
35312;SDS011;21425;50.454;30.466;2022-09-09T02:42:47;20.67;;;4.15;;
35312;SDS011;21425;50.454;30.466;2022-09-09T02:45:14;11.07;;;3.97;;
35312;SDS011;21425;50.454;30.466;2022-09-09T02:50:52;13.00;;;4.78;;
35312;SDS011;21425;50.454;30.466;2022-09-09T02:53:22;12.30;;;4.00;;
35312;SDS011;21425;50.454;30.466;2022-09-09T02:55:54;7.55;;;3.40;;
35312;SDS011;21425;50.454;30.466;2022-09-09T02:58:24;7.63;;;3.20;;
35312;SDS011;21425;50.454;30.466;2022-09-09T03:00:51;10.10;;;3.47;;
35312;SDS011;21425;50.454;30.466;2022-09-09T03:03:17;8.38;;;3.72;;
35312;SDS011;21425;50.454;30.466;2022-09-09T03:05:44;13.65;;;4.53;;
35312;SDS011;21425;50.454;30.466;2022-09-09T03:08:11;9.43;;;3.80;;
35312;SDS011;21425;50.454;30.466;2022-09-09T03:10:38;11.65;;;4.30;;
35312;SDS011;21425;50.454;30.466;2022-09-09T03:13:04;10.40;;;4.18;;
35312;SDS011;21425;50.454;30.466;2022-09-09T03:15:30;13.18;;;4.75;;
35312;SDS011;21425;50.454;30.466;2022-09-09T03:17:57;12.32;;;4.18;;
35312;SDS011;21425;50.454;30.466;2022-09-09T03:20:24;7.85;;;4.10;;
35312;SDS011;21425;50.454;30.466;2022-09-09T03:22:51;13.95;;;4.38;;
35312;SDS011;21425;50.454;30.466;2022-09-09T03:25:17;13.85;;;4.10;;
35312;SDS011;21425;50.454;30.466;2022-09-09T03:27:43;11.25;;;4.13;;
35312;SDS011;21425;50.454;30.466;2022-09-09T03:30:09;10.30;;;4.10;;
35312;SDS011;21425;50.454;30.466;2022-09-09T03:32:36;14.15;;;3.97;;
35312;SDS011;21425;50.454;30.466;2022-09-09T03:35:02;21.90;;;3.72;;
35312;SDS011;21425;50.454;30.466;2022-09-09T03:37:28;16.90;;;4.15;;
35312;SDS011;21425;50.454;30.466;2022-09-09T03:39:53;13.35;;;3.58;;
35312;SDS011;21425;50.454;30.466;2022-09-09T03:42:19;11.77;;;4.10;;
35312;SDS011;21425;50.454;30.466;2022-09-09T03:44:46;16.95;;;4.20;;
35312;SDS011;21425;50.454;30.466;2022-09-09T03:47:14;16.08;;;4.40;;
35312;SDS011;21425;50.454;30.466;2022-09-09T03:49:43;8.57;;;4.03;;
35312;SDS011;21425;50.454;30.466;2022-09-09T03:52:09;15.45;;;4.45;;
35312;SDS011;21425;50.454;30.466;2022-09-09T03:54:35;11.10;;;4.05;;
35312;SDS011;21425;50.454;30.466;2022-09-09T03:57:01;17.88;;;4.53;;
35312;SDS011;21425;50.454;30.466;2022-09-09T03:59:27;17.05;;;4.78;;
35312;SDS011;21425;50.454;30.466;2022-09-09T04:01:53;16.05;;;4.28;;
35312;SDS011;21425;50.454;30.466;2022-09-09T04:04:19;23.63;;;4.88;;
35312;SDS011;21425;50.454;30.466;2022-09-09T04:06:45;19.80;;;4.97;;
35312;SDS011;21425;50.454;30.466;2022-09-09T04:09:13;29.50;;;5.18;;
35312;SDS011;21425;50.454;30.466;2022-09-09T04:11:39;17.02;;;4.80;;
35312;SDS011;21425;50.454;30.466;2022-09-09T04:14:04;22.13;;;5.38;;
35312;SDS011;21425;50.454;30.466;2022-09-09T04:16:31;25.42;;;4.97;;
35312;SDS011;21425;50.454;30.466;2022-09-09T04:19:02;17.63;;;4.53;;
35312;SDS011;21425;50.454;30.466;2022-09-09T04:21:29;19.20;;;4.78;;
35312;SDS011;21425;50.454;30.466;2022-09-09T04:23:55;14.52;;;4.50;;
35312;SDS011;21425;50.454;30.466;2022-09-09T04:26:21;22.40;;;4.57;;
35312;SDS011;21425;50.454;30.466;2022-09-09T04:28:47;16.42;;;5.35;;
35312;SDS011;21425;50.454;30.466;2022-09-09T04:31:17;21.05;;;4.65;;
35312;SDS011;21425;50.454;30.466;2022-09-09T04:33:45;18.92;;;5.40;;
35312;SDS011;21425;50.454;30.466;2022-09-09T04:36:11;25.27;;;5.60;;
35312;SDS011;21425;50.454;30.466;2022-09-09T04:38:38;16.65;;;4.32;;
35312;SDS011;21425;50.454;30.466;2022-09-09T04:41:04;13.77;;;4.68;;
35312;SDS011;21425;50.454;30.466;2022-09-09T04:43:30;11.63;;;4.25;;
35312;SDS011;21425;50.454;30.466;2022-09-09T04:45:56;17.80;;;4.55;;
35312;SDS011;21425;50.454;30.466;2022-09-09T04:48:22;11.68;;;4.15;;
35312;SDS011;21425;50.454;30.466;2022-09-09T04:51:04;12.00;;;4.97;;
35312;SDS011;21425;50.454;30.466;2022-09-09T04:53:31;10.65;;;4.30;;
35312;SDS011;21425;50.454;30.466;2022-09-09T04:56:11;11.27;;;4.35;;
35312;SDS011;21425;50.454;30.466;2022-09-09T04:58:41;18.80;;;4.72;;
35312;SDS011;21425;50.454;30.466;2022-09-09T05:01:14;17.00;;;4.20;;
35312;SDS011;21425;50.454;30.466;2022-09-09T05:03:43;12.65;;;4.32;;
35312;SDS011;21425;50.454;30.466;2022-09-09T05:06:11;14.48;;;4.28;;
35312;SDS011;21425;50.454;30.466;2022-09-09T05:08:39;11.70;;;3.63;;
35312;SDS011;21425;50.454;30.466;2022-09-09T05:11:15;15.85;;;3.75;;
35312;SDS011;21425;50.454;30.466;2022-09-09T05:13:49;10.52;;;4.10;;
35312;SDS011;21425;50.454;30.466;2022-09-09T05:16:15;12.25;;;3.78;;
35312;SDS011;21425;50.454;30.466;2022-09-09T05:18:41;15.25;;;4.22;;
35312;SDS011;21425;50.454;30.466;2022-09-09T05:21:08;21.52;;;3.90;;
35312;SDS011;21425;50.454;30.466;2022-09-09T05:23:34;16.73;;;3.92;;
35312;SDS011;21425;50.454;30.466;2022-09-09T05:26:01;10.15;;;3.72;;
35312;SDS011;21425;50.454;30.466;2022-09-09T05:28:27;11.02;;;4.07;;
35312;SDS011;21425;50.454;30.466;2022-09-09T05:33:29;8.73;;;3.67;;
35312;SDS011;21425;50.454;30.466;2022-09-09T05:35:57;14.15;;;4.43;;
35312;SDS011;21425;50.454;30.466;2022-09-09T05:38:27;12.63;;;3.88;;
35312;SDS011;21425;50.454;30.466;2022-09-09T05:40:54;8.98;;;3.85;;
35312;SDS011;21425;50.454;30.466;2022-09-09T05:43:21;12.95;;;3.63;;
35312;SDS011;21425;50.454;30.466;2022-09-09T05:45:48;11.52;;;3.67;;
35312;SDS011;21425;50.454;30.466;2022-09-09T05:48:23;11.00;;;3.58;;
35312;SDS011;21425;50.454;30.466;2022-09-09T05:50:52;10.52;;;3.88;;
35312;SDS011;21425;50.454;30.466;2022-09-09T05:53:19;9.48;;;3.58;;
35312;SDS011;21425;50.454;30.466;2022-09-09T05:55:45;11.55;;;4.13;;
35312;SDS011;21425;50.454;30.466;2022-09-09T05:58:10;16.25;;;3.97;;
35312;SDS011;21425;50.454;30.466;2022-09-09T06:00:36;9.30;;;3.90;;
35312;SDS011;21425;50.454;30.466;2022-09-09T06:03:03;15.60;;;4.78;;
35312;SDS011;21425;50.454;30.466;2022-09-09T06:05:28;12.77;;;4.35;;
35312;SDS011;21425;50.454;30.466;2022-09-09T06:07:55;14.40;;;4.15;;
35312;SDS011;21425;50.454;30.466;2022-09-09T06:10:21;10.20;;;3.30;;
35312;SDS011;21425;50.454;30.466;2022-09-09T06:12:47;13.57;;;3.50;;
35312;SDS011;21425;50.454;30.466;2022-09-09T06:15:13;14.90;;;4.15;;
35312;SDS011;21425;50.454;30.466;2022-09-09T06:17:39;10.70;;;4.13;;
35312;SDS011;21425;50.454;30.466;2022-09-09T06:20:06;10.50;;;3.20;;
35312;SDS011;21425;50.454;30.466;2022-09-09T06:22:34;11.65;;;4.22;;
35312;SDS011;21425;50.454;30.466;2022-09-09T06:24:59;10.43;;;4.25;;
35312;SDS011;21425;50.454;30.466;2022-09-09T06:27:26;17.73;;;4.47;;
35312;SDS011;21425;50.454;30.466;2022-09-09T06:29:53;16.13;;;4.80;;
35312;SDS011;21425;50.454;30.466;2022-09-09T06:32:19;13.32;;;4.22;;
35312;SDS011;21425;50.454;30.466;2022-09-09T06:34:44;18.73;;;4.55;;
35312;SDS011;21425;50.454;30.466;2022-09-09T06:37:10;14.05;;;3.60;;
35312;SDS011;21425;50.454;30.466;2022-09-09T06:39:36;14.50;;;4.22;;
35312;SDS011;21425;50.454;30.466;2022-09-09T06:42:01;12.13;;;4.13;;
35312;SDS011;21425;50.454;30.466;2022-09-09T06:44:27;16.77;;;4.18;;
35312;SDS011;21425;50.454;30.466;2022-09-09T06:46:53;20.48;;;4.18;;
35312;SDS011;21425;50.454;30.466;2022-09-09T06:49:18;13.52;;;4.10;;
35312;SDS011;21425;50.454;30.466;2022-09-09T06:51:44;13.07;;;3.47;;
35312;SDS011;21425;50.454;30.466;2022-09-09T06:54:11;11.55;;;3.63;;
35312;SDS011;21425;50.454;30.466;2022-09-09T06:56:38;12.68;;;3.65;;
35312;SDS011;21425;50.454;30.466;2022-09-09T06:59:08;13.50;;;4.32;;
35312;SDS011;21425;50.454;30.466;2022-09-09T07:01:38;13.20;;;3.95;;
35312;SDS011;21425;50.454;30.466;2022-09-09T07:04:06;10.57;;;3.15;;
35312;SDS011;21425;50.454;30.466;2022-09-09T07:06:35;12.80;;;3.60;;
35312;SDS011;21425;50.454;30.466;2022-09-09T07:09:03;9.85;;;3.42;;
35312;SDS011;21425;50.454;30.466;2022-09-09T07:11:31;12.30;;;4.20;;
35312;SDS011;21425;50.454;30.466;2022-09-09T07:13:59;10.68;;;3.75;;
35312;SDS011;21425;50.454;30.466;2022-09-09T07:16:26;8.10;;;2.95;;
35312;SDS011;21425;50.454;30.466;2022-09-09T07:18:56;8.02;;;2.90;;
35312;SDS011;21425;50.454;30.466;2022-09-09T07:21:22;6.20;;;2.70;;
35312;SDS011;21425;50.454;30.466;2022-09-09T07:23:49;10.15;;;2.95;;
35312;SDS011;21425;50.454;30.466;2022-09-09T07:26:16;4.88;;;2.70;;
35312;SDS011;21425;50.454;30.466;2022-09-09T07:28:44;11.23;;;2.97;;
35312;SDS011;21425;50.454;30.466;2022-09-09T07:31:19;8.63;;;2.92;;
35312;SDS011;21425;50.454;30.466;2022-09-09T07:33:47;5.10;;;2.20;;
35312;SDS011;21425;50.454;30.466;2022-09-09T07:36:14;7.55;;;2.15;;
35312;SDS011;21425;50.454;30.466;2022-09-09T07:38:46;8.13;;;2.88;;
35312;SDS011;21425;50.454;30.466;2022-09-09T07:41:14;11.23;;;2.22;;
35312;SDS011;21425;50.454;30.466;2022-09-09T07:43:42;10.85;;;2.90;;
35312;SDS011;21425;50.454;30.466;2022-09-09T07:46:10;9.27;;;3.05;;
35312;SDS011;21425;50.454;30.466;2022-09-09T07:48:37;14.45;;;3.22;;
35312;SDS011;21425;50.454;30.466;2022-09-09T07:51:04;7.28;;;2.80;;
35312;SDS011;21425;50.454;30.466;2022-09-09T07:53:36;6.53;;;2.33;;
35312;SDS011;21425;50.454;30.466;2022-09-09T07:56:06;5.32;;;2.60;;
35312;SDS011;21425;50.454;30.466;2022-09-09T07:58:34;8.35;;;2.55;;
35312;SDS011;21425;50.454;30.466;2022-09-09T08:01:08;3.70;;;1.98;;
35312;SDS011;21425;50.454;30.466;2022-09-09T08:03:35;4.40;;;1.98;;
35312;SDS011;21425;50.454;30.466;2022-09-09T08:06:02;7.43;;;2.40;;
35312;SDS011;21425;50.454;30.466;2022-09-09T08:08:29;7.07;;;2.20;;
35312;SDS011;21425;50.454;30.466;2022-09-09T08:11:00;7.78;;;2.13;;
35312;SDS011;21425;50.454;30.466;2022-09-09T08:13:32;5.07;;;2.20;;
35312;SDS011;21425;50.454;30.466;2022-09-09T08:16:06;6.03;;;2.05;;
35312;SDS011;21425;50.454;30.466;2022-09-09T08:18:39;6.28;;;1.90;;
35312;SDS011;21425;50.454;30.466;2022-09-09T08:21:16;4.47;;;2.42;;
35312;SDS011;21425;50.454;30.466;2022-09-09T08:23:50;9.50;;;1.90;;
35312;SDS011;21425;50.454;30.466;2022-09-09T08:26:21;8.60;;;1.85;;
35312;SDS011;21425;50.454;30.466;2022-09-09T08:28:52;5.90;;;1.63;;
35312;SDS011;21425;50.454;30.466;2022-09-09T08:31:21;7.30;;;1.80;;
35312;SDS011;21425;50.454;30.466;2022-09-09T08:33:48;5.93;;;1.50;;
35312;SDS011;21425;50.454;30.466;2022-09-09T08:36:15;5.65;;;1.65;;
35312;SDS011;21425;50.454;30.466;2022-09-09T08:38:49;6.80;;;1.58;;
35312;SDS011;21425;50.454;30.466;2022-09-09T08:55:03;3.75;;;1.42;;
35312;SDS011;21425;50.454;30.466;2022-09-09T08:57:38;4.05;;;1.42;;
35312;SDS011;21425;50.454;30.466;2022-09-09T09:00:04;4.93;;;1.35;;
35312;SDS011;21425;50.454;30.466;2022-09-09T09:02:52;3.80;;;1.20;;
35312;SDS011;21425;50.454;30.466;2022-09-09T09:08:40;5.20;;;1.45;;
35312;SDS011;21425;50.454;30.466;2022-09-09T09:11:10;5.05;;;1.20;;
35312;SDS011;21425;50.454;30.466;2022-09-09T09:19:14;3.20;;;1.17;;
35312;SDS011;21425;50.454;30.466;2022-09-09T09:21:42;6.00;;;1.48;;
35312;SDS011;21425;50.454;30.466;2022-09-09T09:24:19;3.55;;;1.52;;
35312;SDS011;21425;50.454;30.466;2022-09-09T09:26:48;3.78;;;1.48;;
35312;SDS011;21425;50.454;30.466;2022-09-09T09:29:15;5.05;;;1.52;;
35312;SDS011;21425;50.454;30.466;2022-09-09T09:31:48;4.07;;;1.70;;
35312;SDS011;21425;50.454;30.466;2022-09-09T09:34:17;5.60;;;1.52;;
35312;SDS011;21425;50.454;30.466;2022-09-09T09:39:21;6.30;;;1.50;;
35312;SDS011;21425;50.454;30.466;2022-09-09T09:41:49;3.15;;;1.23;;
35312;SDS011;21425;50.454;30.466;2022-09-09T09:44:23;2.58;;;1.20;;
35312;SDS011;21425;50.454;30.466;2022-09-09T09:47:10;2.50;;;1.42;;
35312;SDS011;21425;50.454;30.466;2022-09-09T09:49:37;3.65;;;1.02;;
35312;SDS011;21425;50.454;30.466;2022-09-09T09:52:03;2.65;;;1.10;;
35312;SDS011;21425;50.454;30.466;2022-09-09T09:54:37;1.98;;;1.20;;
35312;SDS011;21425;50.454;30.466;2022-09-09T09:57:09;1.80;;;1.17;;
35312;SDS011;21425;50.454;30.466;2022-09-09T09:59:37;2.28;;;1.20;;
35312;SDS011;21425;50.454;30.466;2022-09-09T10:02:20;3.88;;;1.40;;
35312;SDS011;21425;50.454;30.466;2022-09-09T10:05:02;3.67;;;1.10;;
35312;SDS011;21425;50.454;30.466;2022-09-09T10:07:30;2.00;;;1.13;;
35312;SDS011;21425;50.454;30.466;2022-09-09T10:09:58;1.98;;;1.13;;
35312;SDS011;21425;50.454;30.466;2022-09-09T10:12:27;4.00;;;1.20;;
35312;SDS011;21425;50.454;30.466;2022-09-09T10:18:02;3.63;;;1.30;;
35312;SDS011;21425;50.454;30.466;2022-09-09T10:37:24;2.75;;;1.45;;
35312;SDS011;21425;50.454;30.466;2022-09-09T10:42:51;4.22;;;1.10;;
35312;SDS011;21425;50.454;30.466;2022-09-09T10:47:52;2.75;;;1.17;;
35312;SDS011;21425;50.454;30.466;2022-09-09T10:55:59;2.55;;;1.17;;
35312;SDS011;21425;50.454;30.466;2022-09-09T10:58:39;4.38;;;1.30;;
35312;SDS011;21425;50.454;30.466;2022-09-09T11:01:21;1.98;;;1.15;;
35312;SDS011;21425;50.454;30.466;2022-09-09T11:03:54;3.20;;;1.75;;
35312;SDS011;21425;50.454;30.466;2022-09-09T11:06:43;4.22;;;1.23;;
35312;SDS011;21425;50.454;30.466;2022-09-09T11:09:17;6.13;;;1.25;;
35312;SDS011;21425;50.454;30.466;2022-09-09T11:11:54;1.83;;;1.10;;
35312;SDS011;21425;50.454;30.466;2022-09-09T11:14:22;5.13;;;1.30;;
35312;SDS011;21425;50.454;30.466;2022-09-09T11:16:58;1.83;;;0.80;;
35312;SDS011;21425;50.454;30.466;2022-09-09T11:19:44;8.57;;;1.17;;
35312;SDS011;21425;50.454;30.466;2022-09-09T11:25:05;2.53;;;1.08;;
35312;SDS011;21425;50.454;30.466;2022-09-09T11:30:42;2.03;;;1.00;;
35312;SDS011;21425;50.454;30.466;2022-09-09T11:44:39;7.25;;;1.50;;
35312;SDS011;21425;50.454;30.466;2022-09-09T11:47:16;2.13;;;1.23;;
35312;SDS011;21425;50.454;30.466;2022-09-09T11:49:44;3.75;;;1.42;;
35312;SDS011;21425;50.454;30.466;2022-09-09T11:55:24;3.72;;;1.20;;
35312;SDS011;21425;50.454;30.466;2022-09-09T11:58:00;3.05;;;1.38;;
35312;SDS011;21425;50.454;30.466;2022-09-09T12:00:40;7.75;;;1.45;;
35312;SDS011;21425;50.454;30.466;2022-09-09T12:06:27;5.97;;;1.42;;
35312;SDS011;21425;50.454;30.466;2022-09-09T12:09:08;1.90;;;1.38;;
35312;SDS011;21425;50.454;30.466;2022-09-09T12:11:46;2.38;;;0.98;;
35312;SDS011;21425;50.454;30.466;2022-09-09T12:28:02;3.75;;;1.40;;
35312;SDS011;21425;50.454;30.466;2022-09-09T12:30:45;2.20;;;1.30;;
35312;SDS011;21425;50.454;30.466;2022-09-09T12:33:16;5.00;;;1.33;;
35312;SDS011;21425;50.454;30.466;2022-09-09T12:35:44;4.00;;;1.30;;
35312;SDS011;21425;50.454;30.466;2022-09-09T12:38:17;2.58;;;1.10;;
35312;SDS011;21425;50.454;30.466;2022-09-09T12:41:05;3.58;;;1.33;;
35312;SDS011;21425;50.454;30.466;2022-09-09T12:43:31;5.47;;;1.35;;
35312;SDS011;21425;50.454;30.466;2022-09-09T12:46:03;5.07;;;1.45;;
35312;SDS011;21425;50.454;30.466;2022-09-09T12:48:39;4.78;;;1.50;;
35312;SDS011;21425;50.454;30.466;2022-09-09T12:56:19;4.65;;;1.40;;
35312;SDS011;21425;50.454;30.466;2022-09-09T12:58:47;6.95;;;1.83;;
35312;SDS011;21425;50.454;30.466;2022-09-09T13:01:23;2.83;;;1.40;;
35312;SDS011;21425;50.454;30.466;2022-09-09T13:03:50;6.72;;;1.55;;
35312;SDS011;21425;50.454;30.466;2022-09-09T13:06:21;3.03;;;1.42;;
35312;SDS011;21425;50.454;30.466;2022-09-09T13:08:52;8.02;;;2.40;;
35312;SDS011;21425;50.454;30.466;2022-09-09T13:11:23;7.18;;;1.42;;
35312;SDS011;21425;50.454;30.466;2022-09-09T13:13:56;4.28;;;1.52;;
35312;SDS011;21425;50.454;30.466;2022-09-09T13:16:27;6.07;;;1.55;;
35312;SDS011;21425;50.454;30.466;2022-09-09T13:18:56;3.20;;;1.38;;
35312;SDS011;21425;50.454;30.466;2022-09-09T13:21:35;5.60;;;1.13;;
35312;SDS011;21425;50.454;30.466;2022-09-09T13:24:03;8.05;;;1.70;;
35312;SDS011;21425;50.454;30.466;2022-09-09T13:26:32;7.00;;;1.50;;
35312;SDS011;21425;50.454;30.466;2022-09-09T13:32:05;2.58;;;1.25;;
35312;SDS011;21425;50.454;30.466;2022-09-09T13:34:33;4.38;;;1.40;;
35312;SDS011;21425;50.454;30.466;2022-09-09T13:37:06;4.28;;;1.40;;
35312;SDS011;21425;50.454;30.466;2022-09-09T13:39:50;2.30;;;1.20;;
35312;SDS011;21425;50.454;30.466;2022-09-09T13:42:24;4.97;;;1.40;;
35312;SDS011;21425;50.454;30.466;2022-09-09T13:44:51;10.23;;;1.42;;
35312;SDS011;21425;50.454;30.466;2022-09-09T13:47:18;3.83;;;1.30;;
35312;SDS011;21425;50.454;30.466;2022-09-09T13:49:45;2.72;;;1.25;;
35312;SDS011;21425;50.454;30.466;2022-09-09T13:54:38;3.45;;;1.55;;
35312;SDS011;21425;50.454;30.466;2022-09-09T13:57:05;4.78;;;1.30;;
35312;SDS011;21425;50.454;30.466;2022-09-09T13:59:31;5.55;;;1.23;;
35312;SDS011;21425;50.454;30.466;2022-09-09T14:01:57;4.78;;;1.27;;
35312;SDS011;21425;50.454;30.466;2022-09-09T14:04:23;2.60;;;1.27;;
35312;SDS011;21425;50.454;30.466;2022-09-09T14:06:49;4.03;;;1.48;;
35312;SDS011;21425;50.454;30.466;2022-09-09T14:09:16;4.22;;;1.02;;
35312;SDS011;21425;50.454;30.466;2022-09-09T14:11:43;4.10;;;1.38;;
35312;SDS011;21425;50.454;30.466;2022-09-09T14:14:10;4.68;;;1.85;;
35312;SDS011;21425;50.454;30.466;2022-09-09T14:16:36;7.53;;;1.40;;
35312;SDS011;21425;50.454;30.466;2022-09-09T14:19:02;6.78;;;1.40;;
35312;SDS011;21425;50.454;30.466;2022-09-09T14:21:28;4.25;;;1.40;;
35312;SDS011;21425;50.454;30.466;2022-09-09T14:23:54;3.70;;;1.55;;
35312;SDS011;21425;50.454;30.466;2022-09-09T14:26:23;4.95;;;1.25;;
35312;SDS011;21425;50.454;30.466;2022-09-09T14:28:49;4.93;;;2.10;;
35312;SDS011;21425;50.454;30.466;2022-09-09T14:31:15;5.43;;;1.40;;
35312;SDS011;21425;50.454;30.466;2022-09-09T14:33:42;6.53;;;1.75;;
35312;SDS011;21425;50.454;30.466;2022-09-09T14:36:08;3.28;;;1.50;;
35312;SDS011;21425;50.454;30.466;2022-09-09T14:38:35;4.30;;;2.03;;
35312;SDS011;21425;50.454;30.466;2022-09-09T14:41:04;6.25;;;1.70;;
35312;SDS011;21425;50.454;30.466;2022-09-09T14:43:44;3.95;;;1.60;;
35312;SDS011;21425;50.454;30.466;2022-09-09T14:46:11;3.22;;;1.45;;
35312;SDS011;21425;50.454;30.466;2022-09-09T14:48:41;3.05;;;1.25;;
35312;SDS011;21425;50.454;30.466;2022-09-09T14:51:09;10.18;;;1.55;;
35312;SDS011;21425;50.454;30.466;2022-09-09T14:53:44;2.75;;;1.25;;
35312;SDS011;21425;50.454;30.466;2022-09-09T14:56:14;2.97;;;1.52;;
35312;SDS011;21425;50.454;30.466;2022-09-09T14:58:42;3.13;;;1.10;;
35312;SDS011;21425;50.454;30.466;2022-09-09T15:01:09;5.97;;;1.73;;
35312;SDS011;21425;50.454;30.466;2022-09-09T15:03:39;5.75;;;1.55;;
35312;SDS011;21425;50.454;30.466;2022-09-09T15:06:13;3.15;;;1.45;;
35312;SDS011;21425;50.454;30.466;2022-09-09T15:08:42;4.53;;;1.40;;
35312;SDS011;21425;50.454;30.466;2022-09-09T15:11:10;4.93;;;1.45;;
35312;SDS011;21425;50.454;30.466;2022-09-09T15:13:36;4.13;;;1.77;;
35312;SDS011;21425;50.454;30.466;2022-09-09T15:16:07;4.28;;;1.52;;
35312;SDS011;21425;50.454;30.466;2022-09-09T15:18:38;3.08;;;1.40;;
35312;SDS011;21425;50.454;30.466;2022-09-09T15:21:14;4.43;;;1.25;;
35312;SDS011;21425;50.454;30.466;2022-09-09T15:23:42;6.35;;;1.50;;
35312;SDS011;21425;50.454;30.466;2022-09-09T15:26:08;2.67;;;1.10;;
35312;SDS011;21425;50.454;30.466;2022-09-09T15:28:35;2.88;;;1.40;;
35312;SDS011;21425;50.454;30.466;2022-09-09T15:31:13;5.57;;;1.60;;
35312;SDS011;21425;50.454;30.466;2022-09-09T15:33:42;3.97;;;1.60;;
35312;SDS011;21425;50.454;30.466;2022-09-09T15:36:16;3.43;;;1.57;;
35312;SDS011;21425;50.454;30.466;2022-09-09T15:38:43;4.55;;;1.70;;
35312;SDS011;21425;50.454;30.466;2022-09-09T15:41:10;5.88;;;1.85;;
35312;SDS011;21425;50.454;30.466;2022-09-09T15:43:37;4.95;;;1.80;;
35312;SDS011;21425;50.454;30.466;2022-09-09T15:48:52;5.28;;;1.90;;
35312;SDS011;21425;50.454;30.466;2022-09-09T15:51:22;7.95;;;1.50;;
35312;SDS011;21425;50.454;30.466;2022-09-09T15:53:56;4.68;;;1.60;;
35312;SDS011;21425;50.454;30.466;2022-09-09T15:56:23;3.78;;;1.70;;
35312;SDS011;21425;50.454;30.466;2022-09-09T15:58:49;8.90;;;2.10;;
35312;SDS011;21425;50.454;30.466;2022-09-09T16:01:16;4.05;;;2.22;;
35312;SDS011;21425;50.454;30.466;2022-09-09T16:03:44;3.47;;;2.28;;
35312;SDS011;21425;50.454;30.466;2022-09-09T16:06:11;5.25;;;2.03;;
35312;SDS011;21425;50.454;30.466;2022-09-09T16:08:39;5.80;;;2.10;;
35312;SDS011;21425;50.454;30.466;2022-09-09T16:11:08;5.50;;;2.00;;
35312;SDS011;21425;50.454;30.466;2022-09-09T16:13:37;3.78;;;1.50;;
35312;SDS011;21425;50.454;30.466;2022-09-09T16:16:04;3.72;;;1.73;;
35312;SDS011;21425;50.454;30.466;2022-09-09T16:18:37;3.53;;;1.58;;
35312;SDS011;21425;50.454;30.466;2022-09-09T16:21:04;6.57;;;2.97;;
35312;SDS011;21425;50.454;30.466;2022-09-09T16:23:39;6.28;;;1.92;;
35312;SDS011;21425;50.454;30.466;2022-09-09T16:26:05;5.50;;;1.77;;
35312;SDS011;21425;50.454;30.466;2022-09-09T16:28:31;4.18;;;2.13;;
35312;SDS011;21425;50.454;30.466;2022-09-09T16:30:56;5.93;;;2.30;;
35312;SDS011;21425;50.454;30.466;2022-09-09T16:33:23;4.60;;;2.03;;
35312;SDS011;21425;50.454;30.466;2022-09-09T16:35:50;6.30;;;2.08;;
35312;SDS011;21425;50.454;30.466;2022-09-09T16:38:16;10.77;;;1.85;;
35312;SDS011;21425;50.454;30.466;2022-09-09T16:40:41;8.52;;;2.20;;
35312;SDS011;21425;50.454;30.466;2022-09-09T16:43:07;7.75;;;2.40;;
35312;SDS011;21425;50.454;30.466;2022-09-09T16:45:40;8.07;;;2.75;;
35312;SDS011;21425;50.454;30.466;2022-09-09T16:50:36;8.45;;;3.13;;
35312;SDS011;21425;50.454;30.466;2022-09-09T16:53:02;8.75;;;2.78;;
35312;SDS011;21425;50.454;30.466;2022-09-09T16:55:37;7.85;;;2.95;;
35312;SDS011;21425;50.454;30.466;2022-09-09T16:58:06;6.07;;;2.78;;
35312;SDS011;21425;50.454;30.466;2022-09-09T17:00:33;10.75;;;3.03;;
35312;SDS011;21425;50.454;30.466;2022-09-09T17:02:59;6.80;;;2.20;;
35312;SDS011;21425;50.454;30.466;2022-09-09T17:05:25;5.03;;;2.22;;
35312;SDS011;21425;50.454;30.466;2022-09-09T17:07:51;6.22;;;2.45;;
35312;SDS011;21425;50.454;30.466;2022-09-09T17:10:16;7.10;;;2.40;;
35312;SDS011;21425;50.454;30.466;2022-09-09T17:12:42;6.57;;;2.15;;
35312;SDS011;21425;50.454;30.466;2022-09-09T17:15:08;8.23;;;2.28;;
35312;SDS011;21425;50.454;30.466;2022-09-09T17:17:35;4.03;;;1.70;;
35312;SDS011;21425;50.454;30.466;2022-09-09T17:20:00;6.00;;;1.90;;
35312;SDS011;21425;50.454;30.466;2022-09-09T17:22:27;4.13;;;1.80;;
35312;SDS011;21425;50.454;30.466;2022-09-09T17:24:53;5.57;;;2.00;;
35312;SDS011;21425;50.454;30.466;2022-09-09T17:27:19;3.42;;;1.90;;
35312;SDS011;21425;50.454;30.466;2022-09-09T17:29:45;4.40;;;2.25;;
35312;SDS011;21425;50.454;30.466;2022-09-09T17:32:11;6.15;;;2.30;;